sensor_id;sensor_type;location;lat;lon;timestamp;P1;durP1;ratioP1;P2;durP2;ratioP2
67902;SDS011;54708;43.612;1.568;2024-03-08T00:00:40;7.03;;;1.92;;
67902;SDS011;54708;43.612;1.568;2024-03-08T00:03:07;5.57;;;1.40;;
67902;SDS011;54708;43.612;1.568;2024-03-08T00:05:35;6.68;;;1.88;;
67902;SDS011;54708;43.612;1.568;2024-03-08T00:08:01;5.45;;;2.13;;
67902;SDS011;54708;43.612;1.568;2024-03-08T00:10:26;5.18;;;1.80;;
67902;SDS011;54708;43.612;1.568;2024-03-08T00:12:53;4.05;;;1.73;;
67902;SDS011;54708;43.612;1.568;2024-03-08T00:15:19;4.95;;;2.15;;
67902;SDS011;54708;43.612;1.568;2024-03-08T00:17:45;8.80;;;1.92;;
67902;SDS011;54708;43.612;1.568;2024-03-08T00:20:11;2.50;;;1.88;;
67902;SDS011;54708;43.612;1.568;2024-03-08T00:22:38;3.88;;;1.35;;
67902;SDS011;54708;43.612;1.568;2024-03-08T00:25:04;3.25;;;1.27;;
67902;SDS011;54708;43.612;1.568;2024-03-08T00:27:30;3.90;;;1.52;;
67902;SDS011;54708;43.612;1.568;2024-03-08T00:29:56;3.60;;;1.27;;
67902;SDS011;54708;43.612;1.568;2024-03-08T00:32:25;2.55;;;1.48;;
67902;SDS011;54708;43.612;1.568;2024-03-08T00:34:51;2.70;;;1.30;;
67902;SDS011;54708;43.612;1.568;2024-03-08T00:37:22;3.70;;;1.52;;
67902;SDS011;54708;43.612;1.568;2024-03-08T00:39:48;4.70;;;1.60;;
67902;SDS011;54708;43.612;1.568;2024-03-08T00:42:17;4.85;;;1.27;;
67902;SDS011;54708;43.612;1.568;2024-03-08T00:44:43;5.05;;;1.35;;
67902;SDS011;54708;43.612;1.568;2024-03-08T00:47:08;3.50;;;2.17;;
67902;SDS011;54708;43.612;1.568;2024-03-08T00:49:34;6.95;;;1.40;;
67902;SDS011;54708;43.612;1.568;2024-03-08T00:52:01;3.75;;;2.30;;
67902;SDS011;54708;43.612;1.568;2024-03-08T00:54:27;2.90;;;1.20;;
67902;SDS011;54708;43.612;1.568;2024-03-08T00:56:52;6.35;;;1.48;;
67902;SDS011;54708;43.612;1.568;2024-03-08T00:59:18;4.78;;;1.73;;
67902;SDS011;54708;43.612;1.568;2024-03-08T01:01:43;4.72;;;1.35;;
67902;SDS011;54708;43.612;1.568;2024-03-08T01:04:09;6.38;;;1.65;;
67902;SDS011;54708;43.612;1.568;2024-03-08T01:06:35;3.70;;;1.50;;
67902;SDS011;54708;43.612;1.568;2024-03-08T01:09:00;6.13;;;1.50;;
67902;SDS011;54708;43.612;1.568;2024-03-08T01:11:25;5.40;;;1.80;;
67902;SDS011;54708;43.612;1.568;2024-03-08T01:13:53;6.03;;;2.50;;
67902;SDS011;54708;43.612;1.568;2024-03-08T01:16:18;6.60;;;1.52;;
67902;SDS011;54708;43.612;1.568;2024-03-08T01:18:45;1.88;;;1.27;;
67902;SDS011;54708;43.612;1.568;2024-03-08T01:21:11;5.78;;;1.45;;
67902;SDS011;54708;43.612;1.568;2024-03-08T01:23:37;2.83;;;1.27;;
67902;SDS011;54708;43.612;1.568;2024-03-08T01:26:02;2.65;;;1.15;;
67902;SDS011;54708;43.612;1.568;2024-03-08T01:28:29;5.43;;;1.45;;
67902;SDS011;54708;43.612;1.568;2024-03-08T01:30:55;8.45;;;1.67;;
67902;SDS011;54708;43.612;1.568;2024-03-08T01:33:24;1.52;;;0.90;;
67902;SDS011;54708;43.612;1.568;2024-03-08T01:35:54;5.13;;;1.83;;
67902;SDS011;54708;43.612;1.568;2024-03-08T01:38:20;4.15;;;1.58;;
67902;SDS011;54708;43.612;1.568;2024-03-08T01:40:48;3.30;;;1.73;;
67902;SDS011;54708;43.612;1.568;2024-03-08T01:43:35;1.77;;;1.35;;
67902;SDS011;54708;43.612;1.568;2024-03-08T01:46:00;4.20;;;1.33;;
67902;SDS011;54708;43.612;1.568;2024-03-08T01:48:29;2.88;;;1.67;;
67902;SDS011;54708;43.612;1.568;2024-03-08T01:50:55;6.15;;;2.45;;
67902;SDS011;54708;43.612;1.568;2024-03-08T01:53:21;4.05;;;1.38;;
67902;SDS011;54708;43.612;1.568;2024-03-08T01:55:48;3.35;;;1.55;;
67902;SDS011;54708;43.612;1.568;2024-03-08T01:58:14;3.70;;;1.48;;
67902;SDS011;54708;43.612;1.568;2024-03-08T02:00:43;3.85;;;1.73;;
67902;SDS011;54708;43.612;1.568;2024-03-08T02:03:10;3.50;;;1.83;;
67902;SDS011;54708;43.612;1.568;2024-03-08T02:05:36;6.35;;;1.67;;
67902;SDS011;54708;43.612;1.568;2024-03-08T02:08:03;3.50;;;1.75;;
67902;SDS011;54708;43.612;1.568;2024-03-08T02:10:32;3.92;;;1.50;;
67902;SDS011;54708;43.612;1.568;2024-03-08T02:12:59;3.28;;;1.88;;
67902;SDS011;54708;43.612;1.568;2024-03-08T02:15:26;2.97;;;1.52;;
67902;SDS011;54708;43.612;1.568;2024-03-08T02:17:51;3.60;;;1.77;;
67902;SDS011;54708;43.612;1.568;2024-03-08T02:20:18;4.97;;;2.22;;
67902;SDS011;54708;43.612;1.568;2024-03-08T02:22:44;4.40;;;1.67;;
67902;SDS011;54708;43.612;1.568;2024-03-08T02:25:10;3.22;;;1.30;;
67902;SDS011;54708;43.612;1.568;2024-03-08T02:27:36;2.25;;;1.30;;
67902;SDS011;54708;43.612;1.568;2024-03-08T02:30:02;5.53;;;1.58;;
67902;SDS011;54708;43.612;1.568;2024-03-08T02:32:27;4.35;;;1.42;;
67902;SDS011;54708;43.612;1.568;2024-03-08T02:34:56;2.63;;;1.38;;
67902;SDS011;54708;43.612;1.568;2024-03-08T02:37:21;3.53;;;1.23;;
67902;SDS011;54708;43.612;1.568;2024-03-08T02:39:47;3.25;;;1.27;;
67902;SDS011;54708;43.612;1.568;2024-03-08T02:42:12;7.53;;;1.38;;
67902;SDS011;54708;43.612;1.568;2024-03-08T02:44:41;5.88;;;1.40;;
67902;SDS011;54708;43.612;1.568;2024-03-08T02:47:08;14.93;;;1.58;;
67902;SDS011;54708;43.612;1.568;2024-03-08T02:49:34;3.08;;;0.80;;
67902;SDS011;54708;43.612;1.568;2024-03-08T02:52:02;2.08;;;1.27;;
67902;SDS011;54708;43.612;1.568;2024-03-08T02:54:27;4.43;;;1.20;;
67902;SDS011;54708;43.612;1.568;2024-03-08T02:56:53;3.40;;;1.40;;
67902;SDS011;54708;43.612;1.568;2024-03-08T02:59:18;4.20;;;1.20;;
67902;SDS011;54708;43.612;1.568;2024-03-08T03:01:44;2.85;;;1.55;;
67902;SDS011;54708;43.612;1.568;2024-03-08T03:04:09;3.92;;;1.70;;
67902;SDS011;54708;43.612;1.568;2024-03-08T03:06:34;2.15;;;1.40;;
67902;SDS011;54708;43.612;1.568;2024-03-08T03:09:00;5.00;;;1.40;;
67902;SDS011;54708;43.612;1.568;2024-03-08T03:11:26;2.75;;;1.20;;
67902;SDS011;54708;43.612;1.568;2024-03-08T03:13:52;2.67;;;1.10;;
67902;SDS011;54708;43.612;1.568;2024-03-08T03:16:18;3.53;;;1.80;;
67902;SDS011;54708;43.612;1.568;2024-03-08T03:18:47;2.70;;;1.13;;
67902;SDS011;54708;43.612;1.568;2024-03-08T03:21:12;1.83;;;1.00;;
67902;SDS011;54708;43.612;1.568;2024-03-08T03:23:39;6.97;;;1.35;;
67902;SDS011;54708;43.612;1.568;2024-03-08T03:26:05;5.70;;;1.73;;
67902;SDS011;54708;43.612;1.568;2024-03-08T03:28:32;4.57;;;1.50;;
67902;SDS011;54708;43.612;1.568;2024-03-08T03:30:58;8.68;;;1.15;;
67902;SDS011;54708;43.612;1.568;2024-03-08T03:33:24;6.15;;;1.85;;
67902;SDS011;54708;43.612;1.568;2024-03-08T03:35:49;2.92;;;1.25;;
67902;SDS011;54708;43.612;1.568;2024-03-08T03:38:17;2.83;;;1.20;;
67902;SDS011;54708;43.612;1.568;2024-03-08T03:40:42;8.32;;;1.85;;
67902;SDS011;54708;43.612;1.568;2024-03-08T03:43:10;4.85;;;1.23;;
67902;SDS011;54708;43.612;1.568;2024-03-08T03:45:36;5.25;;;1.40;;
67902;SDS011;54708;43.612;1.568;2024-03-08T03:48:05;2.80;;;1.30;;
67902;SDS011;54708;43.612;1.568;2024-03-08T03:50:37;3.72;;;1.48;;
67902;SDS011;54708;43.612;1.568;2024-03-08T03:53:03;2.83;;;1.27;;
67902;SDS011;54708;43.612;1.568;2024-03-08T03:55:29;4.63;;;1.20;;
67902;SDS011;54708;43.612;1.568;2024-03-08T03:57:54;4.85;;;1.35;;
67902;SDS011;54708;43.612;1.568;2024-03-08T04:00:20;4.15;;;1.10;;
67902;SDS011;54708;43.612;1.568;2024-03-08T04:02:45;1.67;;;1.45;;
67902;SDS011;54708;43.612;1.568;2024-03-08T04:05:12;5.13;;;1.00;;
67902;SDS011;54708;43.612;1.568;2024-03-08T04:07:38;5.00;;;1.00;;
67902;SDS011;54708;43.612;1.568;2024-03-08T04:10:04;3.72;;;1.35;;
67902;SDS011;54708;43.612;1.568;2024-03-08T04:12:34;2.55;;;1.15;;
67902;SDS011;54708;43.612;1.568;2024-03-08T04:14:59;2.63;;;1.13;;
67902;SDS011;54708;43.612;1.568;2024-03-08T04:17:25;1.60;;;1.00;;
67902;SDS011;54708;43.612;1.568;2024-03-08T04:19:51;3.95;;;1.77;;
67902;SDS011;54708;43.612;1.568;2024-03-08T04:22:16;4.15;;;0.88;;
67902;SDS011;54708;43.612;1.568;2024-03-08T04:24:43;4.45;;;1.20;;
67902;SDS011;54708;43.612;1.568;2024-03-08T04:27:09;8.57;;;1.38;;
67902;SDS011;54708;43.612;1.568;2024-03-08T04:29:34;6.00;;;1.52;;
67902;SDS011;54708;43.612;1.568;2024-03-08T04:31:59;7.88;;;1.50;;
67902;SDS011;54708;43.612;1.568;2024-03-08T04:34:28;4.78;;;1.00;;
67902;SDS011;54708;43.612;1.568;2024-03-08T04:36:54;6.40;;;1.40;;
67902;SDS011;54708;43.612;1.568;2024-03-08T04:39:19;5.88;;;1.10;;
67902;SDS011;54708;43.612;1.568;2024-03-08T04:41:46;3.22;;;1.10;;
67902;SDS011;54708;43.612;1.568;2024-03-08T04:44:12;4.85;;;1.33;;
67902;SDS011;54708;43.612;1.568;2024-03-08T04:46:38;2.45;;;1.48;;
67902;SDS011;54708;43.612;1.568;2024-03-08T04:49:03;9.50;;;1.48;;
67902;SDS011;54708;43.612;1.568;2024-03-08T04:51:28;2.58;;;1.30;;
67902;SDS011;54708;43.612;1.568;2024-03-08T04:53:54;2.88;;;1.02;;
67902;SDS011;54708;43.612;1.568;2024-03-08T04:56:19;11.35;;;1.42;;
67902;SDS011;54708;43.612;1.568;2024-03-08T04:58:45;6.07;;;1.52;;
67902;SDS011;54708;43.612;1.568;2024-03-08T05:01:14;17.15;;;1.83;;
67902;SDS011;54708;43.612;1.568;2024-03-08T05:03:40;4.00;;;1.65;;
67902;SDS011;54708;43.612;1.568;2024-03-08T05:06:05;5.10;;;2.00;;
67902;SDS011;54708;43.612;1.568;2024-03-08T05:08:31;3.55;;;1.35;;
67902;SDS011;54708;43.612;1.568;2024-03-08T05:10:56;11.95;;;2.13;;
67902;SDS011;54708;43.612;1.568;2024-03-08T05:13:22;3.08;;;1.33;;
67902;SDS011;54708;43.612;1.568;2024-03-08T05:15:48;4.32;;;1.42;;
67902;SDS011;54708;43.612;1.568;2024-03-08T05:18:15;3.28;;;1.58;;
67902;SDS011;54708;43.612;1.568;2024-03-08T05:20:40;4.00;;;1.05;;
67902;SDS011;54708;43.612;1.568;2024-03-08T05:23:06;3.65;;;1.98;;
67902;SDS011;54708;43.612;1.568;2024-03-08T05:25:33;3.70;;;1.25;;
67902;SDS011;54708;43.612;1.568;2024-03-08T05:27:58;5.00;;;1.30;;
67902;SDS011;54708;43.612;1.568;2024-03-08T05:30:24;8.30;;;2.10;;
67902;SDS011;54708;43.612;1.568;2024-03-08T05:32:49;6.32;;;1.45;;
67902;SDS011;54708;43.612;1.568;2024-03-08T05:35:15;3.53;;;1.42;;
67902;SDS011;54708;43.612;1.568;2024-03-08T05:37:41;7.13;;;1.50;;
67902;SDS011;54708;43.612;1.568;2024-03-08T05:40:07;2.97;;;1.77;;
67902;SDS011;54708;43.612;1.568;2024-03-08T05:42:34;4.70;;;1.95;;
67902;SDS011;54708;43.612;1.568;2024-03-08T05:45:03;4.85;;;1.67;;
67902;SDS011;54708;43.612;1.568;2024-03-08T05:47:29;3.50;;;1.58;;
67902;SDS011;54708;43.612;1.568;2024-03-08T05:49:54;2.85;;;1.25;;
67902;SDS011;54708;43.612;1.568;2024-03-08T05:52:20;4.63;;;1.23;;
67902;SDS011;54708;43.612;1.568;2024-03-08T05:54:46;3.80;;;1.75;;
67902;SDS011;54708;43.612;1.568;2024-03-08T05:57:12;6.05;;;1.75;;
67902;SDS011;54708;43.612;1.568;2024-03-08T05:59:38;4.15;;;1.40;;
67902;SDS011;54708;43.612;1.568;2024-03-08T06:02:04;6.53;;;2.20;;
67902;SDS011;54708;43.612;1.568;2024-03-08T06:04:30;9.70;;;1.40;;
67902;SDS011;54708;43.612;1.568;2024-03-08T06:06:56;4.10;;;1.45;;
67902;SDS011;54708;43.612;1.568;2024-03-08T06:09:22;6.30;;;1.30;;
67902;SDS011;54708;43.612;1.568;2024-03-08T06:11:48;7.80;;;1.77;;
67902;SDS011;54708;43.612;1.568;2024-03-08T06:14:14;8.40;;;1.83;;
67902;SDS011;54708;43.612;1.568;2024-03-08T06:16:43;4.22;;;1.40;;
67902;SDS011;54708;43.612;1.568;2024-03-08T06:19:12;3.67;;;1.80;;
67902;SDS011;54708;43.612;1.568;2024-03-08T06:21:38;6.28;;;2.03;;
67902;SDS011;54708;43.612;1.568;2024-03-08T06:24:03;6.82;;;1.50;;
67902;SDS011;54708;43.612;1.568;2024-03-08T06:26:29;11.13;;;1.73;;
67902;SDS011;54708;43.612;1.568;2024-03-08T06:28:54;5.25;;;1.67;;
67902;SDS011;54708;43.612;1.568;2024-03-08T06:31:20;1.98;;;1.00;;
67902;SDS011;54708;43.612;1.568;2024-03-08T06:33:45;4.80;;;1.23;;
67902;SDS011;54708;43.612;1.568;2024-03-08T06:36:11;2.20;;;1.00;;
67902;SDS011;54708;43.612;1.568;2024-03-08T06:38:37;2.78;;;1.23;;
67902;SDS011;54708;43.612;1.568;2024-03-08T06:41:08;4.90;;;1.15;;
67902;SDS011;54708;43.612;1.568;2024-03-08T06:43:41;6.25;;;1.63;;
67902;SDS011;54708;43.612;1.568;2024-03-08T06:46:10;3.00;;;1.35;;
67902;SDS011;54708;43.612;1.568;2024-03-08T06:48:37;2.63;;;1.20;;
67902;SDS011;54708;43.612;1.568;2024-03-08T06:51:05;5.15;;;1.42;;
67902;SDS011;54708;43.612;1.568;2024-03-08T06:53:31;3.10;;;1.13;;
67902;SDS011;54708;43.612;1.568;2024-03-08T06:55:59;1.88;;;0.88;;
67902;SDS011;54708;43.612;1.568;2024-03-08T06:58:25;3.65;;;1.33;;
67902;SDS011;54708;43.612;1.568;2024-03-08T07:00:50;1.10;;;1.00;;
67902;SDS011;54708;43.612;1.568;2024-03-08T07:03:17;4.35;;;1.20;;
67902;SDS011;54708;43.612;1.568;2024-03-08T07:05:43;6.32;;;1.17;;
67902;SDS011;54708;43.612;1.568;2024-03-08T07:08:08;4.85;;;1.35;;
67902;SDS011;54708;43.612;1.568;2024-03-08T07:10:33;2.92;;;0.90;;
67902;SDS011;54708;43.612;1.568;2024-03-08T07:13:00;3.45;;;1.15;;
67902;SDS011;54708;43.612;1.568;2024-03-08T07:15:27;3.80;;;1.60;;
67902;SDS011;54708;43.612;1.568;2024-03-08T07:17:53;2.95;;;1.80;;
67902;SDS011;54708;43.612;1.568;2024-03-08T07:20:18;1.80;;;0.85;;
67902;SDS011;54708;43.612;1.568;2024-03-08T07:22:44;2.42;;;0.93;;
67902;SDS011;54708;43.612;1.568;2024-03-08T07:25:12;2.13;;;0.93;;
67902;SDS011;54708;43.612;1.568;2024-03-08T07:27:54;3.60;;;0.52;;
67902;SDS011;54708;43.612;1.568;2024-03-08T07:30:20;4.18;;;0.80;;
67902;SDS011;54708;43.612;1.568;2024-03-08T07:33:08;2.40;;;0.80;;
67902;SDS011;54708;43.612;1.568;2024-03-08T07:35:36;3.15;;;0.57;;
67902;SDS011;54708;43.612;1.568;2024-03-08T07:38:06;2.00;;;0.63;;
67902;SDS011;54708;43.612;1.568;2024-03-08T07:40:36;2.20;;;0.60;;
67902;SDS011;54708;43.612;1.568;2024-03-08T07:43:13;1.77;;;1.00;;
67902;SDS011;54708;43.612;1.568;2024-03-08T07:45:39;2.20;;;1.10;;
67902;SDS011;54708;43.612;1.568;2024-03-08T07:48:05;2.38;;;1.05;;
67902;SDS011;54708;43.612;1.568;2024-03-08T07:50:37;4.68;;;1.85;;
67902;SDS011;54708;43.612;1.568;2024-03-08T07:53:04;3.15;;;1.80;;
67902;SDS011;54708;43.612;1.568;2024-03-08T07:55:31;2.50;;;1.10;;
67902;SDS011;54708;43.612;1.568;2024-03-08T07:57:57;1.13;;;1.08;;
67902;SDS011;54708;43.612;1.568;2024-03-08T08:00:22;2.38;;;0.63;;
67902;SDS011;54708;43.612;1.568;2024-03-08T08:02:49;2.03;;;1.15;;
67902;SDS011;54708;43.612;1.568;2024-03-08T08:05:14;1.05;;;0.70;;
67902;SDS011;54708;43.612;1.568;2024-03-08T08:07:43;1.45;;;0.93;;
67902;SDS011;54708;43.612;1.568;2024-03-08T08:10:09;3.17;;;0.90;;
67902;SDS011;54708;43.612;1.568;2024-03-08T08:12:41;1.10;;;0.70;;
67902;SDS011;54708;43.612;1.568;2024-03-08T08:15:07;2.20;;;0.80;;
67902;SDS011;54708;43.612;1.568;2024-03-08T08:17:33;2.55;;;1.27;;
67902;SDS011;54708;43.612;1.568;2024-03-08T08:19:59;4.82;;;0.88;;
67902;SDS011;54708;43.612;1.568;2024-03-08T08:22:25;2.40;;;1.60;;
67902;SDS011;54708;43.612;1.568;2024-03-08T08:24:50;1.83;;;0.80;;
67902;SDS011;54708;43.612;1.568;2024-03-08T08:27:17;0.93;;;0.80;;
67902;SDS011;54708;43.612;1.568;2024-03-08T08:29:42;3.35;;;2.08;;
67902;SDS011;54708;43.612;1.568;2024-03-08T08:32:08;0.82;;;0.82;;
67902;SDS011;54708;43.612;1.568;2024-03-08T08:34:34;0.70;;;0.70;;
67902;SDS011;54708;43.612;1.568;2024-03-08T08:36:59;1.95;;;0.55;;
67902;SDS011;54708;43.612;1.568;2024-03-08T08:39:25;2.42;;;0.65;;
67902;SDS011;54708;43.612;1.568;2024-03-08T08:41:51;0.60;;;0.60;;
67902;SDS011;54708;43.612;1.568;2024-03-08T08:44:17;1.00;;;0.70;;
67902;SDS011;54708;43.612;1.568;2024-03-08T08:46:43;1.27;;;0.63;;
67902;SDS011;54708;43.612;1.568;2024-03-08T08:49:08;2.40;;;0.60;;
67902;SDS011;54708;43.612;1.568;2024-03-08T08:51:36;3.95;;;0.77;;
67902;SDS011;54708;43.612;1.568;2024-03-08T08:54:01;1.35;;;0.68;;
67902;SDS011;54708;43.612;1.568;2024-03-08T08:56:27;2.88;;;1.30;;
67902;SDS011;54708;43.612;1.568;2024-03-08T08:58:54;2.47;;;0.55;;
67902;SDS011;54708;43.612;1.568;2024-03-08T09:01:19;4.25;;;0.68;;
67902;SDS011;54708;43.612;1.568;2024-03-08T09:03:45;1.83;;;0.88;;
67902;SDS011;54708;43.612;1.568;2024-03-08T09:06:15;1.20;;;0.80;;
67902;SDS011;54708;43.612;1.568;2024-03-08T09:08:41;0.65;;;0.50;;
67902;SDS011;54708;43.612;1.568;2024-03-08T09:11:07;1.40;;;0.45;;
67902;SDS011;54708;43.612;1.568;2024-03-08T09:13:32;1.25;;;0.60;;
67902;SDS011;54708;43.612;1.568;2024-03-08T09:15:59;0.45;;;0.45;;
67902;SDS011;54708;43.612;1.568;2024-03-08T09:18:24;2.00;;;0.80;;
67902;SDS011;54708;43.612;1.568;2024-03-08T09:20:50;3.80;;;1.00;;
67902;SDS011;54708;43.612;1.568;2024-03-08T09:23:16;4.45;;;1.00;;
67902;SDS011;54708;43.612;1.568;2024-03-08T09:25:44;2.92;;;1.40;;
67902;SDS011;54708;43.612;1.568;2024-03-08T09:28:10;4.50;;;2.65;;
67902;SDS011;54708;43.612;1.568;2024-03-08T09:30:37;3.92;;;1.52;;
67902;SDS011;54708;43.612;1.568;2024-03-08T09:33:03;4.82;;;1.38;;
67902;SDS011;54708;43.612;1.568;2024-03-08T09:35:29;8.32;;;3.13;;
67902;SDS011;54708;43.612;1.568;2024-03-08T09:37:55;4.90;;;2.78;;
67902;SDS011;54708;43.612;1.568;2024-03-08T09:40:21;5.75;;;2.00;;
67902;SDS011;54708;43.612;1.568;2024-03-08T09:42:48;3.05;;;2.78;;
67902;SDS011;54708;43.612;1.568;2024-03-08T09:45:14;7.13;;;2.63;;
67902;SDS011;54708;43.612;1.568;2024-03-08T09:47:43;11.75;;;2.42;;
67902;SDS011;54708;43.612;1.568;2024-03-08T09:50:09;6.57;;;2.45;;
67902;SDS011;54708;43.612;1.568;2024-03-08T09:52:38;9.35;;;3.55;;
67902;SDS011;54708;43.612;1.568;2024-03-08T09:55:07;3.20;;;2.22;;
67902;SDS011;54708;43.612;1.568;2024-03-08T09:57:33;4.55;;;2.35;;
67902;SDS011;54708;43.612;1.568;2024-03-08T09:59:59;4.60;;;2.97;;
67902;SDS011;54708;43.612;1.568;2024-03-08T10:02:24;5.43;;;2.90;;
67902;SDS011;54708;43.612;1.568;2024-03-08T10:04:50;5.43;;;2.97;;
67902;SDS011;54708;43.612;1.568;2024-03-08T10:07:18;7.05;;;2.88;;
67902;SDS011;54708;43.612;1.568;2024-03-08T10:09:43;4.93;;;2.55;;
67902;SDS011;54708;43.612;1.568;2024-03-08T10:12:12;5.97;;;2.63;;
67902;SDS011;54708;43.612;1.568;2024-03-08T10:14:38;7.45;;;2.90;;
67902;SDS011;54708;43.612;1.568;2024-03-08T10:17:05;4.53;;;2.25;;
67902;SDS011;54708;43.612;1.568;2024-03-08T10:19:30;5.13;;;1.90;;
67902;SDS011;54708;43.612;1.568;2024-03-08T10:21:55;4.57;;;2.25;;
67902;SDS011;54708;43.612;1.568;2024-03-08T10:24:24;2.72;;;1.63;;
67902;SDS011;54708;43.612;1.568;2024-03-08T10:26:55;3.83;;;2.92;;
67902;SDS011;54708;43.612;1.568;2024-03-08T10:29:23;1.52;;;1.42;;
67902;SDS011;54708;43.612;1.568;2024-03-08T10:31:49;6.90;;;1.85;;
67902;SDS011;54708;43.612;1.568;2024-03-08T10:34:15;1.90;;;1.25;;
67902;SDS011;54708;43.612;1.568;2024-03-08T10:36:41;1.85;;;1.58;;
67902;SDS011;54708;43.612;1.568;2024-03-08T10:39:17;6.15;;;1.83;;
67902;SDS011;54708;43.612;1.568;2024-03-08T10:41:52;2.45;;;1.90;;
67902;SDS011;54708;43.612;1.568;2024-03-08T10:49:37;7.07;;;2.13;;
67902;SDS011;54708;43.612;1.568;2024-03-08T10:52:04;3.42;;;2.30;;
67902;SDS011;54708;43.612;1.568;2024-03-08T10:54:31;4.05;;;3.10;;
67902;SDS011;54708;43.612;1.568;2024-03-08T10:56:59;1.77;;;1.67;;
67902;SDS011;54708;43.612;1.568;2024-03-08T10:59:26;3.53;;;1.60;;
67902;SDS011;54708;43.612;1.568;2024-03-08T11:01:52;3.90;;;1.88;;
67902;SDS011;54708;43.612;1.568;2024-03-08T11:04:18;2.28;;;1.85;;
67902;SDS011;54708;43.612;1.568;2024-03-08T11:06:47;3.53;;;2.47;;
67902;SDS011;54708;43.612;1.568;2024-03-08T11:09:30;6.50;;;4.50;;
67902;SDS011;54708;43.612;1.568;2024-03-08T11:15:12;2.20;;;1.52;;
67902;SDS011;54708;43.612;1.568;2024-03-08T11:17:50;3.45;;;1.60;;
67902;SDS011;54708;43.612;1.568;2024-03-08T11:20:16;1.67;;;1.40;;
67902;SDS011;54708;43.612;1.568;2024-03-08T11:22:53;2.40;;;1.67;;
67902;SDS011;54708;43.612;1.568;2024-03-08T11:25:33;1.73;;;1.63;;
67902;SDS011;54708;43.612;1.568;2024-03-08T11:30:43;2.90;;;2.08;;
67902;SDS011;54708;43.612;1.568;2024-03-08T11:33:12;2.35;;;1.35;;
67902;SDS011;54708;43.612;1.568;2024-03-08T11:35:41;2.25;;;1.27;;
67902;SDS011;54708;43.612;1.568;2024-03-08T11:38:10;2.92;;;1.38;;
67902;SDS011;54708;43.612;1.568;2024-03-08T11:40:36;1.17;;;0.95;;
67902;SDS011;54708;43.612;1.568;2024-03-08T11:43:02;3.08;;;0.95;;
67902;SDS011;54708;43.612;1.568;2024-03-08T11:45:32;1.73;;;1.00;;
67902;SDS011;54708;43.612;1.568;2024-03-08T11:48:01;1.92;;;1.13;;
67902;SDS011;54708;43.612;1.568;2024-03-08T11:50:28;1.73;;;1.45;;
67902;SDS011;54708;43.612;1.568;2024-03-08T11:52:59;1.20;;;1.10;;
67902;SDS011;54708;43.612;1.568;2024-03-08T11:55:25;1.58;;;0.73;;
67902;SDS011;54708;43.612;1.568;2024-03-08T11:57:58;0.70;;;0.70;;
67902;SDS011;54708;43.612;1.568;2024-03-08T12:00:25;1.10;;;0.95;;
67902;SDS011;54708;43.612;1.568;2024-03-08T12:03:06;0.77;;;0.77;;
67902;SDS011;54708;43.612;1.568;2024-03-08T12:05:34;1.15;;;1.05;;
67902;SDS011;54708;43.612;1.568;2024-03-08T12:08:01;0.63;;;0.63;;
67902;SDS011;54708;43.612;1.568;2024-03-08T12:10:27;1.88;;;0.80;;
67902;SDS011;54708;43.612;1.568;2024-03-08T12:12:54;1.67;;;0.70;;
67902;SDS011;54708;43.612;1.568;2024-03-08T12:15:24;1.58;;;0.90;;
67902;SDS011;54708;43.612;1.568;2024-03-08T12:17:51;1.63;;;1.10;;
67902;SDS011;54708;43.612;1.568;2024-03-08T12:22:54;1.55;;;0.73;;
67902;SDS011;54708;43.612;1.568;2024-03-08T12:25:22;0.90;;;0.82;;
67902;SDS011;54708;43.612;1.568;2024-03-08T12:27:47;2.88;;;1.13;;
67902;SDS011;54708;43.612;1.568;2024-03-08T12:30:22;2.75;;;0.70;;
67902;SDS011;54708;43.612;1.568;2024-03-08T12:35:21;0.93;;;0.80;;
67902;SDS011;54708;43.612;1.568;2024-03-08T12:37:48;1.55;;;0.65;;
67902;SDS011;54708;43.612;1.568;2024-03-08T12:40:16;2.03;;;0.80;;
67902;SDS011;54708;43.612;1.568;2024-03-08T12:42:45;0.73;;;0.60;;
67902;SDS011;54708;43.612;1.568;2024-03-08T12:45:12;1.20;;;0.90;;
67902;SDS011;54708;43.612;1.568;2024-03-08T12:47:39;0.80;;;0.70;;
67902;SDS011;54708;43.612;1.568;2024-03-08T12:50:07;0.77;;;0.77;;
67902;SDS011;54708;43.612;1.568;2024-03-08T12:52:34;0.50;;;0.50;;
67902;SDS011;54708;43.612;1.568;2024-03-08T12:54:59;1.58;;;0.45;;
67902;SDS011;54708;43.612;1.568;2024-03-08T12:57:31;0.60;;;0.60;;
67902;SDS011;54708;43.612;1.568;2024-03-08T12:59:58;0.98;;;0.57;;
67902;SDS011;54708;43.612;1.568;2024-03-08T13:02:24;1.30;;;0.50;;
67902;SDS011;54708;43.612;1.568;2024-03-08T13:04:51;0.95;;;0.50;;
67902;SDS011;54708;43.612;1.568;2024-03-08T13:07:22;0.50;;;0.50;;
67902;SDS011;54708;43.612;1.568;2024-03-08T13:09:49;0.40;;;0.30;;
67902;SDS011;54708;43.612;1.568;2024-03-08T13:12:14;0.45;;;0.45;;
67902;SDS011;54708;43.612;1.568;2024-03-08T13:14:40;0.50;;;0.50;;
67902;SDS011;54708;43.612;1.568;2024-03-08T13:17:06;0.57;;;0.40;;
67902;SDS011;54708;43.612;1.568;2024-03-08T13:19:35;0.85;;;0.50;;
67902;SDS011;54708;43.612;1.568;2024-03-08T13:22:01;0.60;;;0.47;;
67902;SDS011;54708;43.612;1.568;2024-03-08T13:24:29;0.50;;;0.40;;
67902;SDS011;54708;43.612;1.568;2024-03-08T13:26:55;0.52;;;0.45;;
67902;SDS011;54708;43.612;1.568;2024-03-08T13:29:20;0.95;;;0.55;;
67902;SDS011;54708;43.612;1.568;2024-03-08T13:31:46;0.40;;;0.40;;
67902;SDS011;54708;43.612;1.568;2024-03-08T13:34:16;1.05;;;0.50;;
67902;SDS011;54708;43.612;1.568;2024-03-08T13:36:42;0.47;;;0.40;;
67902;SDS011;54708;43.612;1.568;2024-03-08T13:39:09;0.30;;;0.30;;
67902;SDS011;54708;43.612;1.568;2024-03-08T13:41:40;0.57;;;0.55;;
67902;SDS011;54708;43.612;1.568;2024-03-08T13:44:09;0.45;;;0.40;;
67902;SDS011;54708;43.612;1.568;2024-03-08T13:46:35;0.47;;;0.47;;
67902;SDS011;54708;43.612;1.568;2024-03-08T13:49:03;0.38;;;0.38;;
67902;SDS011;54708;43.612;1.568;2024-03-08T13:54:00;0.75;;;0.60;;
67902;SDS011;54708;43.612;1.568;2024-03-08T13:56:26;0.80;;;0.57;;
67902;SDS011;54708;43.612;1.568;2024-03-08T13:58:51;20.40;;;9.52;;
67902;SDS011;54708;43.612;1.568;2024-03-08T14:01:17;16.58;;;8.35;;
67902;SDS011;54708;43.612;1.568;2024-03-08T14:03:42;10.77;;;5.60;;
67902;SDS011;54708;43.612;1.568;2024-03-08T14:06:08;3.47;;;1.90;;
67902;SDS011;54708;43.612;1.568;2024-03-08T14:08:34;0.55;;;0.55;;
67902;SDS011;54708;43.612;1.568;2024-03-08T14:11:03;2.25;;;1.65;;
67902;SDS011;54708;43.612;1.568;2024-03-08T14:13:41;1.05;;;0.98;;
67902;SDS011;54708;43.612;1.568;2024-03-08T14:16:11;1.60;;;0.85;;
67902;SDS011;54708;43.612;1.568;2024-03-08T14:18:36;0.93;;;0.60;;
67902;SDS011;54708;43.612;1.568;2024-03-08T14:21:02;1.80;;;1.05;;
67902;SDS011;54708;43.612;1.568;2024-03-08T14:23:29;1.77;;;1.23;;
67902;SDS011;54708;43.612;1.568;2024-03-08T14:25:54;1.58;;;1.38;;
67902;SDS011;54708;43.612;1.568;2024-03-08T14:28:20;1.27;;;0.80;;
67902;SDS011;54708;43.612;1.568;2024-03-08T14:30:47;0.73;;;0.57;;
67902;SDS011;54708;43.612;1.568;2024-03-08T14:33:13;0.85;;;0.47;;
67902;SDS011;54708;43.612;1.568;2024-03-08T14:35:39;1.73;;;1.30;;
67902;SDS011;54708;43.612;1.568;2024-03-08T14:38:05;1.05;;;1.05;;
67902;SDS011;54708;43.612;1.568;2024-03-08T14:40:33;2.85;;;0.93;;
67902;SDS011;54708;43.612;1.568;2024-03-08T14:42:59;1.58;;;0.82;;
67902;SDS011;54708;43.612;1.568;2024-03-08T14:45:24;2.80;;;0.73;;
67902;SDS011;54708;43.612;1.568;2024-03-08T14:47:51;1.33;;;0.77;;
67902;SDS011;54708;43.612;1.568;2024-03-08T14:50:17;0.80;;;0.68;;
67902;SDS011;54708;43.612;1.568;2024-03-08T14:52:47;0.90;;;0.80;;
67902;SDS011;54708;43.612;1.568;2024-03-08T14:55:13;3.63;;;1.27;;
67902;SDS011;54708;43.612;1.568;2024-03-08T14:57:41;2.65;;;1.52;;
67902;SDS011;54708;43.612;1.568;2024-03-08T15:00:10;0.63;;;0.50;;
67902;SDS011;54708;43.612;1.568;2024-03-08T15:02:45;2.42;;;1.35;;
67902;SDS011;54708;43.612;1.568;2024-03-08T15:05:10;0.73;;;0.73;;